sensor_id;sensor_type;location;lat;lon;timestamp;P1;durP1;ratioP1;P2;durP2;ratioP2
15990;SDS011;8100;50.994;4.538;2023-04-15T00:02:12;6.60;;;4.03;;
15990;SDS011;8100;50.994;4.538;2023-04-15T00:05:00;10.55;;;4.85;;
15990;SDS011;8100;50.994;4.538;2023-04-15T00:07:48;8.82;;;4.13;;
15990;SDS011;8100;50.994;4.538;2023-04-15T00:10:35;6.55;;;4.00;;
15990;SDS011;8100;50.994;4.538;2023-04-15T00:13:23;7.40;;;3.55;;
15990;SDS011;8100;50.994;4.538;2023-04-15T00:16:11;8.80;;;4.00;;
15990;SDS011;8100;50.994;4.538;2023-04-15T00:18:58;8.00;;;4.15;;
15990;SDS011;8100;50.994;4.538;2023-04-15T00:21:46;7.22;;;3.58;;
15990;SDS011;8100;50.994;4.538;2023-04-15T00:24:33;5.22;;;3.65;;
15990;SDS011;8100;50.994;4.538;2023-04-15T00:27:20;5.93;;;3.90;;
15990;SDS011;8100;50.994;4.538;2023-04-15T00:30:07;13.77;;;3.78;;
15990;SDS011;8100;50.994;4.538;2023-04-15T00:32:57;9.68;;;4.28;;
15990;SDS011;8100;50.994;4.538;2023-04-15T00:35:44;6.25;;;3.92;;
15990;SDS011;8100;50.994;4.538;2023-04-15T00:38:31;6.47;;;3.50;;
15990;SDS011;8100;50.994;4.538;2023-04-15T00:41:19;6.03;;;3.60;;
15990;SDS011;8100;50.994;4.538;2023-04-15T00:44:07;8.90;;;3.40;;
15990;SDS011;8100;50.994;4.538;2023-04-15T00:46:54;9.02;;;3.75;;
15990;SDS011;8100;50.994;4.538;2023-04-15T00:49:44;5.68;;;3.83;;
15990;SDS011;8100;50.994;4.538;2023-04-15T00:52:31;6.15;;;3.70;;
15990;SDS011;8100;50.994;4.538;2023-04-15T00:55:19;6.45;;;4.00;;
15990;SDS011;8100;50.994;4.538;2023-04-15T00:58:06;11.05;;;3.72;;
15990;SDS011;8100;50.994;4.538;2023-04-15T01:00:55;6.82;;;4.05;;
15990;SDS011;8100;50.994;4.538;2023-04-15T01:03:43;5.10;;;3.80;;
15990;SDS011;8100;50.994;4.538;2023-04-15T01:06:32;7.55;;;3.60;;
15990;SDS011;8100;50.994;4.538;2023-04-15T01:09:19;6.82;;;3.80;;
15990;SDS011;8100;50.994;4.538;2023-04-15T01:12:06;6.40;;;3.53;;
15990;SDS011;8100;50.994;4.538;2023-04-15T01:14:56;8.35;;;4.10;;
15990;SDS011;8100;50.994;4.538;2023-04-15T01:17:45;6.82;;;3.95;;
15990;SDS011;8100;50.994;4.538;2023-04-15T01:20:33;8.88;;;4.50;;
15990;SDS011;8100;50.994;4.538;2023-04-15T01:23:22;5.60;;;3.67;;
15990;SDS011;8100;50.994;4.538;2023-04-15T01:26:12;7.57;;;4.50;;
15990;SDS011;8100;50.994;4.538;2023-04-15T01:28:59;5.47;;;3.75;;
15990;SDS011;8100;50.994;4.538;2023-04-15T01:31:49;6.07;;;3.70;;
15990;SDS011;8100;50.994;4.538;2023-04-15T01:34:37;5.68;;;3.75;;
15990;SDS011;8100;50.994;4.538;2023-04-15T01:37:24;5.82;;;3.45;;
15990;SDS011;8100;50.994;4.538;2023-04-15T01:40:11;11.02;;;4.07;;
15990;SDS011;8100;50.994;4.538;2023-04-15T01:43:01;6.95;;;3.50;;
15990;SDS011;8100;50.994;4.538;2023-04-15T01:45:48;6.68;;;3.92;;
15990;SDS011;8100;50.994;4.538;2023-04-15T01:48:36;6.38;;;3.90;;
15990;SDS011;8100;50.994;4.538;2023-04-15T01:51:23;7.88;;;3.83;;
15990;SDS011;8100;50.994;4.538;2023-04-15T01:54:11;6.80;;;4.13;;
15990;SDS011;8100;50.994;4.538;2023-04-15T01:56:58;6.93;;;3.80;;
15990;SDS011;8100;50.994;4.538;2023-04-15T01:59:47;6.63;;;3.70;;
15990;SDS011;8100;50.994;4.538;2023-04-15T02:02:35;6.32;;;3.42;;
15990;SDS011;8100;50.994;4.538;2023-04-15T02:05:22;7.40;;;3.83;;
15990;SDS011;8100;50.994;4.538;2023-04-15T02:08:10;6.03;;;3.83;;
15990;SDS011;8100;50.994;4.538;2023-04-15T02:10:57;6.57;;;3.97;;
15990;SDS011;8100;50.994;4.538;2023-04-15T02:13:45;7.45;;;3.75;;
15990;SDS011;8100;50.994;4.538;2023-04-15T02:16:34;8.73;;;3.53;;
15990;SDS011;8100;50.994;4.538;2023-04-15T02:19:21;7.15;;;4.07;;
15990;SDS011;8100;50.994;4.538;2023-04-15T02:22:08;7.32;;;3.30;;
15990;SDS011;8100;50.994;4.538;2023-04-15T02:25:02;6.47;;;3.40;;
15990;SDS011;8100;50.994;4.538;2023-04-15T02:27:50;5.43;;;3.35;;
15990;SDS011;8100;50.994;4.538;2023-04-15T02:30:37;8.13;;;3.33;;
15990;SDS011;8100;50.994;4.538;2023-04-15T02:33:27;7.47;;;3.72;;
15990;SDS011;8100;50.994;4.538;2023-04-15T02:36:14;6.47;;;2.88;;
15990;SDS011;8100;50.994;4.538;2023-04-15T02:39:01;6.15;;;3.25;;
15990;SDS011;8100;50.994;4.538;2023-04-15T02:41:49;9.25;;;3.47;;
15990;SDS011;8100;50.994;4.538;2023-04-15T02:44:36;6.15;;;3.05;;
15990;SDS011;8100;50.994;4.538;2023-04-15T02:47:24;4.63;;;2.97;;
15990;SDS011;8100;50.994;4.538;2023-04-15T02:50:13;7.07;;;2.92;;
15990;SDS011;8100;50.994;4.538;2023-04-15T02:53:00;5.28;;;3.05;;
15990;SDS011;8100;50.994;4.538;2023-04-15T02:55:47;5.10;;;3.17;;
15990;SDS011;8100;50.994;4.538;2023-04-15T02:58:35;5.32;;;3.22;;
15990;SDS011;8100;50.994;4.538;2023-04-15T03:01:22;5.03;;;3.15;;
15990;SDS011;8100;50.994;4.538;2023-04-15T03:04:09;6.68;;;3.40;;
15990;SDS011;8100;50.994;4.538;2023-04-15T03:06:57;6.70;;;3.25;;
15990;SDS011;8100;50.994;4.538;2023-04-15T03:09:45;6.60;;;3.65;;
15990;SDS011;8100;50.994;4.538;2023-04-15T03:12:33;8.85;;;3.35;;
15990;SDS011;8100;50.994;4.538;2023-04-15T03:15:20;7.45;;;3.75;;
15990;SDS011;8100;50.994;4.538;2023-04-15T03:18:07;4.95;;;3.53;;
15990;SDS011;8100;50.994;4.538;2023-04-15T03:20:55;6.38;;;3.25;;
15990;SDS011;8100;50.994;4.538;2023-04-15T03:23:44;7.43;;;3.47;;
15990;SDS011;8100;50.994;4.538;2023-04-15T03:26:31;6.82;;;3.30;;
15990;SDS011;8100;50.994;4.538;2023-04-15T03:29:18;5.75;;;3.33;;
15990;SDS011;8100;50.994;4.538;2023-04-15T03:32:05;7.30;;;3.40;;
15990;SDS011;8100;50.994;4.538;2023-04-15T03:34:53;5.78;;;3.38;;
15990;SDS011;8100;50.994;4.538;2023-04-15T03:37:40;6.65;;;3.47;;
15990;SDS011;8100;50.994;4.538;2023-04-15T03:40:28;9.43;;;3.90;;
15990;SDS011;8100;50.994;4.538;2023-04-15T03:43:15;5.35;;;3.45;;
15990;SDS011;8100;50.994;4.538;2023-04-15T03:46:03;6.88;;;3.60;;
15990;SDS011;8100;50.994;4.538;2023-04-15T03:48:50;5.75;;;3.50;;
15990;SDS011;8100;50.994;4.538;2023-04-15T03:51:37;6.35;;;3.33;;
15990;SDS011;8100;50.994;4.538;2023-04-15T03:54:25;6.88;;;3.97;;
15990;SDS011;8100;50.994;4.538;2023-04-15T03:57:13;8.40;;;3.88;;
15990;SDS011;8100;50.994;4.538;2023-04-15T04:00:00;11.75;;;4.28;;
15990;SDS011;8100;50.994;4.538;2023-04-15T04:02:48;7.50;;;3.45;;
15990;SDS011;8100;50.994;4.538;2023-04-15T04:05:35;6.53;;;3.90;;
15990;SDS011;8100;50.994;4.538;2023-04-15T04:08:23;9.52;;;4.05;;
15990;SDS011;8100;50.994;4.538;2023-04-15T04:11:12;6.63;;;3.60;;
15990;SDS011;8100;50.994;4.538;2023-04-15T04:14:00;10.65;;;4.35;;
15990;SDS011;8100;50.994;4.538;2023-04-15T04:16:47;5.60;;;3.65;;
15990;SDS011;8100;50.994;4.538;2023-04-15T04:19:35;6.63;;;3.88;;
15990;SDS011;8100;50.994;4.538;2023-04-15T04:22:22;7.80;;;4.20;;
15990;SDS011;8100;50.994;4.538;2023-04-15T04:25:10;7.18;;;4.15;;
15990;SDS011;8100;50.994;4.538;2023-04-15T04:27:57;8.00;;;3.67;;
15990;SDS011;8100;50.994;4.538;2023-04-15T04:30:46;6.90;;;3.67;;
15990;SDS011;8100;50.994;4.538;2023-04-15T04:33:33;7.70;;;4.05;;
15990;SDS011;8100;50.994;4.538;2023-04-15T04:36:20;7.93;;;3.88;;
15990;SDS011;8100;50.994;4.538;2023-04-15T04:39:07;11.07;;;4.50;;
15990;SDS011;8100;50.994;4.538;2023-04-15T04:41:54;7.43;;;4.00;;
15990;SDS011;8100;50.994;4.538;2023-04-15T04:44:41;6.32;;;3.83;;
15990;SDS011;8100;50.994;4.538;2023-04-15T04:47:30;7.57;;;3.80;;
15990;SDS011;8100;50.994;4.538;2023-04-15T04:50:17;8.68;;;4.20;;
15990;SDS011;8100;50.994;4.538;2023-04-15T04:53:04;7.82;;;4.20;;
15990;SDS011;8100;50.994;4.538;2023-04-15T04:55:52;6.30;;;3.72;;
15990;SDS011;8100;50.994;4.538;2023-04-15T04:58:39;7.18;;;3.90;;
15990;SDS011;8100;50.994;4.538;2023-04-15T05:01:26;9.23;;;4.25;;
15990;SDS011;8100;50.994;4.538;2023-04-15T05:04:15;6.93;;;3.83;;
15990;SDS011;8100;50.994;4.538;2023-04-15T05:07:02;8.75;;;3.85;;
15990;SDS011;8100;50.994;4.538;2023-04-15T05:09:49;8.15;;;4.20;;
15990;SDS011;8100;50.994;4.538;2023-04-15T05:12:37;8.50;;;3.97;;
15990;SDS011;8100;50.994;4.538;2023-04-15T05:15:24;5.88;;;3.85;;
15990;SDS011;8100;50.994;4.538;2023-04-15T05:18:12;8.32;;;3.70;;
15990;SDS011;8100;50.994;4.538;2023-04-15T05:21:00;9.10;;;4.25;;
15990;SDS011;8100;50.994;4.538;2023-04-15T05:23:48;7.25;;;3.88;;
15990;SDS011;8100;50.994;4.538;2023-04-15T05:26:35;6.93;;;4.20;;
15990;SDS011;8100;50.994;4.538;2023-04-15T05:29:22;8.75;;;4.40;;
15990;SDS011;8100;50.994;4.538;2023-04-15T05:32:10;6.80;;;4.32;;
15990;SDS011;8100;50.994;4.538;2023-04-15T05:34:57;7.05;;;3.92;;
15990;SDS011;8100;50.994;4.538;2023-04-15T05:37:45;6.47;;;3.85;;
15990;SDS011;8100;50.994;4.538;2023-04-15T05:40:33;8.75;;;3.83;;
15990;SDS011;8100;50.994;4.538;2023-04-15T05:43:20;9.65;;;4.30;;
15990;SDS011;8100;50.994;4.538;2023-04-15T05:46:07;8.73;;;4.43;;
15990;SDS011;8100;50.994;4.538;2023-04-15T05:48:54;9.07;;;4.32;;
15990;SDS011;8100;50.994;4.538;2023-04-15T05:51:42;7.38;;;4.20;;
15990;SDS011;8100;50.994;4.538;2023-04-15T05:54:30;8.48;;;3.85;;
15990;SDS011;8100;50.994;4.538;2023-04-15T05:57:17;7.93;;;3.92;;
15990;SDS011;8100;50.994;4.538;2023-04-15T06:00:05;9.15;;;4.03;;
15990;SDS011;8100;50.994;4.538;2023-04-15T06:02:54;8.45;;;4.35;;
15990;SDS011;8100;50.994;4.538;2023-04-15T06:05:42;9.20;;;5.07;;
15990;SDS011;8100;50.994;4.538;2023-04-15T06:08:29;10.27;;;4.45;;
15990;SDS011;8100;50.994;4.538;2023-04-15T06:11:18;7.28;;;4.22;;
15990;SDS011;8100;50.994;4.538;2023-04-15T06:14:06;7.70;;;4.28;;
15990;SDS011;8100;50.994;4.538;2023-04-15T06:16:53;8.77;;;4.05;;
15990;SDS011;8100;50.994;4.538;2023-04-15T06:19:40;7.68;;;4.10;;
15990;SDS011;8100;50.994;4.538;2023-04-15T06:22:27;6.55;;;4.25;;
15990;SDS011;8100;50.994;4.538;2023-04-15T06:25:15;10.25;;;4.53;;
15990;SDS011;8100;50.994;4.538;2023-04-15T06:28:04;8.85;;;4.72;;
15990;SDS011;8100;50.994;4.538;2023-04-15T06:30:51;10.63;;;5.10;;
15990;SDS011;8100;50.994;4.538;2023-04-15T06:33:39;8.80;;;4.72;;
15990;SDS011;8100;50.994;4.538;2023-04-15T06:36:26;9.75;;;4.75;;
15990;SDS011;8100;50.994;4.538;2023-04-15T06:39:13;7.60;;;4.30;;
15990;SDS011;8100;50.994;4.538;2023-04-15T06:42:00;9.77;;;4.60;;
15990;SDS011;8100;50.994;4.538;2023-04-15T06:44:50;10.65;;;4.78;;
15990;SDS011;8100;50.994;4.538;2023-04-15T06:47:37;10.52;;;4.70;;
15990;SDS011;8100;50.994;4.538;2023-04-15T06:50:25;10.52;;;4.63;;
15990;SDS011;8100;50.994;4.538;2023-04-15T06:53:12;12.82;;;4.85;;
15990;SDS011;8100;50.994;4.538;2023-04-15T06:56:00;8.00;;;4.57;;
15990;SDS011;8100;50.994;4.538;2023-04-15T06:58:47;12.35;;;5.70;;
15990;SDS011;8100;50.994;4.538;2023-04-15T07:01:36;10.10;;;5.65;;
15990;SDS011;8100;50.994;4.538;2023-04-15T07:04:23;10.38;;;6.03;;
15990;SDS011;8100;50.994;4.538;2023-04-15T07:07:10;10.55;;;5.53;;
15990;SDS011;8100;50.994;4.538;2023-04-15T07:09:57;10.98;;;6.50;;
15990;SDS011;8100;50.994;4.538;2023-04-15T07:12:46;11.43;;;7.22;;
15990;SDS011;8100;50.994;4.538;2023-04-15T07:15:35;10.68;;;6.43;;
15990;SDS011;8100;50.994;4.538;2023-04-15T07:18:23;12.85;;;7.40;;
15990;SDS011;8100;50.994;4.538;2023-04-15T07:21:10;11.98;;;7.70;;
15990;SDS011;8100;50.994;4.538;2023-04-15T07:23:58;13.93;;;7.90;;
15990;SDS011;8100;50.994;4.538;2023-04-15T07:26:45;12.88;;;7.80;;
15990;SDS011;8100;50.994;4.538;2023-04-15T07:29:32;12.93;;;7.25;;
15990;SDS011;8100;50.994;4.538;2023-04-15T07:32:19;12.32;;;7.88;;
15990;SDS011;8100;50.994;4.538;2023-04-15T07:35:08;10.27;;;7.57;;
15990;SDS011;8100;50.994;4.538;2023-04-15T07:37:56;11.52;;;8.00;;
15990;SDS011;8100;50.994;4.538;2023-04-15T07:40:43;12.65;;;8.25;;
15990;SDS011;8100;50.994;4.538;2023-04-15T07:43:30;13.07;;;8.30;;
15990;SDS011;8100;50.994;4.538;2023-04-15T07:46:17;12.30;;;8.70;;
15990;SDS011;8100;50.994;4.538;2023-04-15T07:49:05;10.73;;;8.00;;
15990;SDS011;8100;50.994;4.538;2023-04-15T07:51:53;13.10;;;8.50;;
15990;SDS011;8100;50.994;4.538;2023-04-15T07:54:42;15.07;;;8.95;;
15990;SDS011;8100;50.994;4.538;2023-04-15T07:57:29;12.93;;;8.30;;
15990;SDS011;8100;50.994;4.538;2023-04-15T08:00:16;12.75;;;8.15;;
15990;SDS011;8100;50.994;4.538;2023-04-15T08:03:04;12.65;;;7.95;;
15990;SDS011;8100;50.994;4.538;2023-04-15T08:05:52;14.52;;;7.60;;
15990;SDS011;8100;50.994;4.538;2023-04-15T08:08:41;14.85;;;7.50;;
15990;SDS011;8100;50.994;4.538;2023-04-15T08:11:28;13.68;;;7.00;;
15990;SDS011;8100;50.994;4.538;2023-04-15T08:14:15;12.65;;;6.50;;
15990;SDS011;8100;50.994;4.538;2023-04-15T08:17:03;13.82;;;5.78;;
15990;SDS011;8100;50.994;4.538;2023-04-15T08:19:50;9.80;;;6.20;;
15990;SDS011;8100;50.994;4.538;2023-04-15T08:22:38;8.02;;;5.57;;
15990;SDS011;8100;50.994;4.538;2023-04-15T08:25:26;9.63;;;5.75;;
15990;SDS011;8100;50.994;4.538;2023-04-15T08:28:13;7.15;;;5.15;;
15990;SDS011;8100;50.994;4.538;2023-04-15T08:31:01;8.18;;;5.78;;
15990;SDS011;8100;50.994;4.538;2023-04-15T08:33:48;9.35;;;5.75;;
15990;SDS011;8100;50.994;4.538;2023-04-15T08:36:38;9.18;;;5.28;;
15990;SDS011;8100;50.994;4.538;2023-04-15T08:39:25;10.00;;;6.00;;
15990;SDS011;8100;50.994;4.538;2023-04-15T08:42:15;8.35;;;5.32;;
15990;SDS011;8100;50.994;4.538;2023-04-15T08:45:03;7.68;;;5.88;;
15990;SDS011;8100;50.994;4.538;2023-04-15T08:47:51;10.38;;;5.63;;
15990;SDS011;8100;50.994;4.538;2023-04-15T08:50:41;10.38;;;3.70;;
15990;SDS011;8100;50.994;4.538;2023-04-15T08:53:29;9.13;;;6.25;;
15990;SDS011;8100;50.994;4.538;2023-04-15T08:56:17;8.52;;;5.50;;
15990;SDS011;8100;50.994;4.538;2023-04-15T08:59:06;9.98;;;4.57;;
15990;SDS011;8100;50.994;4.538;2023-04-15T09:01:54;6.70;;;2.67;;
15990;SDS011;8100;50.994;4.538;2023-04-15T09:04:42;8.32;;;5.50;;
15990;SDS011;8100;50.994;4.538;2023-04-15T09:07:31;8.55;;;5.35;;
15990;SDS011;8100;50.994;4.538;2023-04-15T09:10:19;9.32;;;5.53;;
15990;SDS011;8100;50.994;4.538;2023-04-15T09:13:06;9.52;;;5.13;;
15990;SDS011;8100;50.994;4.538;2023-04-15T09:15:56;7.75;;;4.70;;
15990;SDS011;8100;50.994;4.538;2023-04-15T09:18:43;6.95;;;4.25;;
15990;SDS011;8100;50.994;4.538;2023-04-15T09:21:31;3.38;;;1.85;;
15990;SDS011;8100;50.994;4.538;2023-04-15T09:24:18;8.02;;;4.60;;
15990;SDS011;8100;50.994;4.538;2023-04-15T09:27:06;8.05;;;4.70;;
15990;SDS011;8100;50.994;4.538;2023-04-15T09:29:53;7.18;;;3.92;;
15990;SDS011;8100;50.994;4.538;2023-04-15T09:32:48;7.65;;;4.22;;
15990;SDS011;8100;50.994;4.538;2023-04-15T09:35:36;8.88;;;5.60;;
15990;SDS011;8100;50.994;4.538;2023-04-15T09:38:23;7.63;;;4.05;;
15990;SDS011;8100;50.994;4.538;2023-04-15T09:41:15;4.93;;;2.63;;
15990;SDS011;8100;50.994;4.538;2023-04-15T09:44:04;7.07;;;4.30;;
15990;SDS011;8100;50.994;4.538;2023-04-15T09:46:51;6.57;;;3.40;;
15990;SDS011;8100;50.994;4.538;2023-04-15T09:49:39;5.68;;;3.30;;
15990;SDS011;8100;50.994;4.538;2023-04-15T09:52:41;6.93;;;3.92;;
15990;SDS011;8100;50.994;4.538;2023-04-15T09:55:31;4.60;;;3.50;;
15990;SDS011;8100;50.994;4.538;2023-04-15T09:58:19;7.20;;;3.75;;
15990;SDS011;8100;50.994;4.538;2023-04-15T10:01:07;5.03;;;3.58;;
15990;SDS011;8100;50.994;4.538;2023-04-15T10:03:56;4.82;;;3.25;;
15990;SDS011;8100;50.994;4.538;2023-04-15T10:06:45;7.90;;;3.83;;
15990;SDS011;8100;50.994;4.538;2023-04-15T10:09:32;4.72;;;2.20;;
15990;SDS011;8100;50.994;4.538;2023-04-15T10:12:22;4.90;;;3.45;;
15990;SDS011;8100;50.994;4.538;2023-04-15T10:15:10;8.95;;;3.83;;
15990;SDS011;8100;50.994;4.538;2023-04-15T10:18:01;7.05;;;3.50;;
15990;SDS011;8100;50.994;4.538;2023-04-15T10:20:51;5.10;;;3.00;;
15990;SDS011;8100;50.994;4.538;2023-04-15T10:23:40;6.13;;;2.40;;
15990;SDS011;8100;50.994;4.538;2023-04-15T10:26:27;3.78;;;1.67;;
15990;SDS011;8100;50.994;4.538;2023-04-15T10:29:16;5.65;;;3.10;;
15990;SDS011;8100;50.994;4.538;2023-04-15T10:32:04;4.80;;;2.85;;
15990;SDS011;8100;50.994;4.538;2023-04-15T10:34:51;1.58;;;1.02;;
15990;SDS011;8100;50.994;4.538;2023-04-15T10:37:40;5.25;;;2.65;;
15990;SDS011;8100;50.994;4.538;2023-04-15T10:40:28;5.53;;;3.10;;
15990;SDS011;8100;50.994;4.538;2023-04-15T10:43:23;4.05;;;2.88;;
15990;SDS011;8100;50.994;4.538;2023-04-15T10:46:11;2.75;;;1.67;;
15990;SDS011;8100;50.994;4.538;2023-04-15T10:48:59;4.18;;;2.83;;
15990;SDS011;8100;50.994;4.538;2023-04-15T10:51:57;1.35;;;0.68;;
15990;SDS011;8100;50.994;4.538;2023-04-15T10:54:45;3.90;;;2.90;;
15990;SDS011;8100;50.994;4.538;2023-04-15T10:57:38;6.55;;;3.53;;
15990;SDS011;8100;50.994;4.538;2023-04-15T11:00:27;3.85;;;2.70;;
15990;SDS011;8100;50.994;4.538;2023-04-15T11:03:15;5.72;;;2.85;;
15990;SDS011;8100;50.994;4.538;2023-04-15T11:06:03;5.50;;;2.80;;
15990;SDS011;8100;50.994;4.538;2023-04-15T11:08:52;3.72;;;3.08;;
15990;SDS011;8100;50.994;4.538;2023-04-15T11:14:55;3.45;;;2.22;;
15990;SDS011;8100;50.994;4.538;2023-04-15T11:17:43;2.97;;;2.30;;
15990;SDS011;8100;50.994;4.538;2023-04-15T11:20:30;3.00;;;2.13;;
15990;SDS011;8100;50.994;4.538;2023-04-15T11:23:18;4.55;;;2.83;;
15990;SDS011;8100;50.994;4.538;2023-04-15T11:26:12;4.32;;;2.75;;
15990;SDS011;8100;50.994;4.538;2023-04-15T11:29:00;4.50;;;3.00;;
15990;SDS011;8100;50.994;4.538;2023-04-15T11:31:48;4.05;;;2.92;;
15990;SDS011;8100;50.994;4.538;2023-04-15T11:34:36;7.35;;;2.72;;
15990;SDS011;8100;50.994;4.538;2023-04-15T11:37:26;4.45;;;2.15;;
15990;SDS011;8100;50.994;4.538;2023-04-15T11:40:14;4.63;;;2.22;;
15990;SDS011;8100;50.994;4.538;2023-04-15T11:43:03;2.65;;;1.80;;
15990;SDS011;8100;50.994;4.538;2023-04-15T11:45:52;3.20;;;1.35;;
15990;SDS011;8100;50.994;4.538;2023-04-15T11:48:42;3.47;;;2.08;;
15990;SDS011;8100;50.994;4.538;2023-04-15T11:51:31;3.63;;;2.00;;
15990;SDS011;8100;50.994;4.538;2023-04-15T11:54:19;3.83;;;2.10;;
15990;SDS011;8100;50.994;4.538;2023-04-15T11:57:06;2.50;;;1.50;;
15990;SDS011;8100;50.994;4.538;2023-04-15T11:59:54;2.88;;;1.40;;
15990;SDS011;8100;50.994;4.538;2023-04-15T12:02:41;3.75;;;2.17;;
15990;SDS011;8100;50.994;4.538;2023-04-15T12:05:29;3.78;;;2.53;;
15990;SDS011;8100;50.994;4.538;2023-04-15T12:08:17;3.60;;;2.00;;
15990;SDS011;8100;50.994;4.538;2023-04-15T12:11:04;2.55;;;1.88;;
15990;SDS011;8100;50.994;4.538;2023-04-15T12:13:52;2.42;;;2.10;;
15990;SDS011;8100;50.994;4.538;2023-04-15T12:16:41;2.50;;;1.67;;
15990;SDS011;8100;50.994;4.538;2023-04-15T12:19:30;3.25;;;1.95;;
15990;SDS011;8100;50.994;4.538;2023-04-15T12:22:22;3.63;;;2.00;;
15990;SDS011;8100;50.994;4.538;2023-04-15T12:25:10;2.75;;;1.67;;
15990;SDS011;8100;50.994;4.538;2023-04-15T12:27:57;2.42;;;1.60;;
15990;SDS011;8100;50.994;4.538;2023-04-15T12:30:48;8.13;;;1.58;;
15990;SDS011;8100;50.994;4.538;2023-04-15T12:33:36;1.55;;;1.10;;
15990;SDS011;8100;50.994;4.538;2023-04-15T12:36:24;1.45;;;1.15;;
15990;SDS011;8100;50.994;4.538;2023-04-15T12:39:13;2.17;;;1.50;;
15990;SDS011;8100;50.994;4.538;2023-04-15T12:42:00;4.32;;;1.50;;
15990;SDS011;8100;50.994;4.538;2023-04-15T12:44:47;3.25;;;1.23;;
15990;SDS011;8100;50.994;4.538;2023-04-15T12:47:34;3.13;;;1.73;;
15990;SDS011;8100;50.994;4.538;2023-04-15T12:50:22;2.80;;;1.60;;
15990;SDS011;8100;50.994;4.538;2023-04-15T12:53:09;2.67;;;1.52;;
15990;SDS011;8100;50.994;4.538;2023-04-15T12:55:59;3.95;;;2.30;;
15990;SDS011;8100;50.994;4.538;2023-04-15T12:58:46;2.47;;;2.00;;
15990;SDS011;8100;50.994;4.538;2023-04-15T13:01:33;2.92;;;2.22;;
15990;SDS011;8100;50.994;4.538;2023-04-15T13:04:20;3.40;;;1.73;;
15990;SDS011;8100;50.994;4.538;2023-04-15T13:07:08;2.22;;;1.90;;
15990;SDS011;8100;50.994;4.538;2023-04-15T13:09:55;4.43;;;2.08;;
15990;SDS011;8100;50.994;4.538;2023-04-15T13:12:43;3.28;;;2.08;;
15990;SDS011;8100;50.994;4.538;2023-04-15T13:15:33;3.30;;;2.38;;
15990;SDS011;8100;50.994;4.538;2023-04-15T13:18:21;3.50;;;2.63;;
15990;SDS011;8100;50.994;4.538;2023-04-15T13:21:08;4.18;;;2.03;;
15990;SDS011;8100;50.994;4.538;2023-04-15T13:23:55;4.78;;;2.40;;
15990;SDS011;8100;50.994;4.538;2023-04-15T13:26:42;3.05;;;1.95;;
15990;SDS011;8100;50.994;4.538;2023-04-15T13:29:31;3.47;;;2.10;;
15990;SDS011;8100;50.994;4.538;2023-04-15T13:32:18;4.32;;;2.10;;
15990;SDS011;8100;50.994;4.538;2023-04-15T13:35:05;4.55;;;1.73;;
15990;SDS011;8100;50.994;4.538;2023-04-15T13:37:53;2.78;;;1.33;;
15990;SDS011;8100;50.994;4.538;2023-04-15T13:40:40;3.30;;;1.50;;
15990;SDS011;8100;50.994;4.538;2023-04-15T13:43:27;3.78;;;1.33;;
15990;SDS011;8100;50.994;4.538;2023-04-15T13:46:16;2.90;;;1.17;;
15990;SDS011;8100;50.994;4.538;2023-04-15T13:49:03;4.45;;;1.70;;
15990;SDS011;8100;50.994;4.538;2023-04-15T13:51:51;2.70;;;1.60;;
15990;SDS011;8100;50.994;4.538;2023-04-15T13:54:38;3.00;;;1.48;;
15990;SDS011;8100;50.994;4.538;2023-04-15T13:57:25;4.03;;;1.50;;
15990;SDS011;8100;50.994;4.538;2023-04-15T14:00:12;3.42;;;1.30;;
15990;SDS011;8100;50.994;4.538;2023-04-15T14:03:01;0.93;;;0.43;;
15990;SDS011;8100;50.994;4.538;2023-04-15T14:05:49;3.00;;;0.70;;
15990;SDS011;8100;50.994;4.538;2023-04-15T14:08:40;1.63;;;0.70;;
15990;SDS011;8100;50.994;4.538;2023-04-15T14:11:27;1.55;;;0.50;;
15990;SDS011;8100;50.994;4.538;2023-04-15T14:14:14;2.45;;;0.75;;
15990;SDS011;8100;50.994;4.538;2023-04-15T14:17:02;1.77;;;0.85;;
15990;SDS011;8100;50.994;4.538;2023-04-15T14:19:51;2.90;;;0.80;;
15990;SDS011;8100;50.994;4.538;2023-04-15T14:22:38;1.20;;;0.90;;
15990;SDS011;8100;50.994;4.538;2023-04-15T14:25:27;1.40;;;0.90;;
15990;SDS011;8100;50.994;4.538;2023-04-15T14:28:14;1.85;;;1.27;;
15990;SDS011;8100;50.994;4.538;2023-04-15T14:31:01;3.70;;;1.50;;
15990;SDS011;8100;50.994;4.538;2023-04-15T14:33:48;2.00;;;1.10;;
15990;SDS011;8100;50.994;4.538;2023-04-15T14:36:37;2.47;;;1.70;;
15990;SDS011;8100;50.994;4.538;2023-04-15T14:39:26;3.33;;;1.90;;
15990;SDS011;8100;50.994;4.538;2023-04-15T14:42:13;2.25;;;1.42;;
15990;SDS011;8100;50.994;4.538;2023-04-15T14:45:00;2.38;;;1.50;;
15990;SDS011;8100;50.994;4.538;2023-04-15T14:47:47;4.43;;;1.48;;
15990;SDS011;8100;50.994;4.538;2023-04-15T14:50:34;2.33;;;1.33;;
15990;SDS011;8100;50.994;4.538;2023-04-15T14:53:24;5.57;;;2.00;;
15990;SDS011;8100;50.994;4.538;2023-04-15T14:56:11;4.38;;;2.10;;
15990;SDS011;8100;50.994;4.538;2023-04-15T14:58:58;4.47;;;2.20;;
15990;SDS011;8100;50.994;4.538;2023-04-15T15:01:46;2.50;;;1.52;;
15990;SDS011;8100;50.994;4.538;2023-04-15T15:04:33;2.92;;;1.77;;
15990;SDS011;8100;50.994;4.538;2023-04-15T15:07:21;3.35;;;2.10;;
15990;SDS011;8100;50.994;4.538;2023-04-15T15:10:10;6.32;;;2.30;;
15990;SDS011;8100;50.994;4.538;2023-04-15T15:12:57;3.50;;;2.20;;
15990;SDS011;8100;50.994;4.538;2023-04-15T15:15:44;3.20;;;2.33;;
15990;SDS011;8100;50.994;4.538;2023-04-15T15:18:34;3.78;;;1.92;;
15990;SDS011;8100;50.994;4.538;2023-04-15T15:21:21;2.88;;;1.90;;
15990;SDS011;8100;50.994;4.538;2023-04-15T15:24:08;3.80;;;2.30;;
15990;SDS011;8100;50.994;4.538;2023-04-15T15:26:57;4.65;;;2.55;;
15990;SDS011;8100;50.994;4.538;2023-04-15T15:29:44;4.97;;;2.30;;
15990;SDS011;8100;50.994;4.538;2023-04-15T15:32:32;4.47;;;1.92;;
15990;SDS011;8100;50.994;4.538;2023-04-15T15:35:19;5.85;;;1.83;;
15990;SDS011;8100;50.994;4.538;2023-04-15T15:38:07;3.28;;;1.67;;
15990;SDS011;8100;50.994;4.538;2023-04-15T15:40:56;3.50;;;1.42;;
15990;SDS011;8100;50.994;4.538;2023-04-15T15:43:45;4.97;;;1.73;;
15990;SDS011;8100;50.994;4.538;2023-04-15T15:46:32;4.85;;;1.55;;
15990;SDS011;8100;50.994;4.538;2023-04-15T15:49:19;3.47;;;1.80;;
15990;SDS011;8100;50.994;4.538;2023-04-15T15:52:06;2.53;;;1.38;;
15990;SDS011;8100;50.994;4.538;2023-04-15T15:54:54;2.95;;;1.50;;
15990;SDS011;8100;50.994;4.538;2023-04-15T15:57:41;3.92;;;1.33;;
15990;SDS011;8100;50.994;4.538;2023-04-15T16:00:29;2.42;;;1.10;;
15990;SDS011;8100;50.994;4.538;2023-04-15T16:03:16;1.98;;;1.10;;
15990;SDS011;8100;50.994;4.538;2023-04-15T16:06:04;3.03;;;1.30;;
15990;SDS011;8100;50.994;4.538;2023-04-15T16:08:51;2.28;;;1.30;;
15990;SDS011;8100;50.994;4.538;2023-04-15T16:11:38;3.35;;;1.35;;
15990;SDS011;8100;50.994;4.538;2023-04-15T16:14:25;1.92;;;1.00;;
15990;SDS011;8100;50.994;4.538;2023-04-15T16:17:14;2.22;;;1.00;;
15990;SDS011;8100;50.994;4.538;2023-04-15T16:20:01;3.03;;;1.20;;
15990;SDS011;8100;50.994;4.538;2023-04-15T16:22:50;3.42;;;1.27;;
15990;SDS011;8100;50.994;4.538;2023-04-15T16:25:37;2.17;;;1.20;;
15990;SDS011;8100;50.994;4.538;2023-04-15T16:28:24;1.77;;;1.23;;
15990;SDS011;8100;50.994;4.538;2023-04-15T16:31:12;1.33;;;1.05;;
15990;SDS011;8100;50.994;4.538;2023-04-15T16:34:00;4.93;;;1.00;;
15990;SDS011;8100;50.994;4.538;2023-04-15T16:36:48;2.78;;;0.98;;
15990;SDS011;8100;50.994;4.538;2023-04-15T16:39:35;1.38;;;1.10;;
15990;SDS011;8100;50.994;4.538;2023-04-15T16:42:22;1.73;;;1.00;;
15990;SDS011;8100;50.994;4.538;2023-04-15T16:45:10;2.72;;;1.10;;
15990;SDS011;8100;50.994;4.538;2023-04-15T16:47:57;2.28;;;1.20;;
15990;SDS011;8100;50.994;4.538;2023-04-15T16:50:46;1.20;;;0.70;;
15990;SDS011;8100;50.994;4.538;2023-04-15T16:53:34;1.50;;;1.00;;
15990;SDS011;8100;50.994;4.538;2023-04-15T16:56:21;1.20;;;0.85;;
15990;SDS011;8100;50.994;4.538;2023-04-15T16:59:08;1.92;;;1.17;;
15990;SDS011;8100;50.994;4.538;2023-04-15T17:01:55;2.25;;;1.00;;
15990;SDS011;8100;50.994;4.538;2023-04-15T17:04:42;2.78;;;1.05;;
15990;SDS011;8100;50.994;4.538;2023-04-15T17:07:31;3.78;;;1.00;;
15990;SDS011;8100;50.994;4.538;2023-04-15T17:10:18;2.55;;;0.90;;